Alborn, Minnesota
Current Conditions -  °F | °C
As of 4:16 PM on Friday 31 Oct 2014 (Local Time) from KCOQ Reporting Station
Clear Clear  
Wind Chill: 34°   Ceiling: Unl
Heat Index: 37°   Visibility: 10mi
Dew Point:   Wind: 5mph
Humidity: 30%   Direction: 350°N
Pressure: 30.47"   Gusts: NA
Location:  46.97°N, 92.58°W
Report Text: KCOQ 312116Z AUTO 35004KT 10SM CLR 03/M13 A3047 RMK AO2
Loading
Personal Weather Stations






























Interactive Weather Map
Tropical Storm Tracking
New forecast layout! Learn more

10-Day Weather Forecast

Advertisements
Track Severe Weather on mobile